sensor_id;sensor_type;location;lat;lon;timestamp;temperature;humidity
8402;DHT22;4238;48.404;9.498;2023-04-03T05:21:40;1.10;99.90
8402;DHT22;4238;48.404;9.498;2023-04-03T05:24:06;1.30;1.00
8402;DHT22;4238;48.404;9.498;2023-04-03T05:26:35;1.40;99.90
8402;DHT22;4238;48.404;9.498;2023-04-03T05:29:02;1.40;1.00
8402;DHT22;4238;48.404;9.498;2023-04-03T05:31:29;1.30;1.00
8402;DHT22;4238;48.404;9.498;2023-04-03T05:33:56;1.40;1.00
8402;DHT22;4238;48.404;9.498;2023-04-03T05:36:23;1.40;96.00
8402;DHT22;4238;48.404;9.498;2023-04-03T05:38:52;1.40;1.00
8402;DHT22;4238;48.404;9.498;2023-04-03T05:41:22;1.40;1.00
8402;DHT22;4238;48.404;9.498;2023-04-03T05:43:49;1.40;1.00
8402;DHT22;4238;48.404;9.498;2023-04-03T05:46:17;1.50;99.90
8402;DHT22;4238;48.404;9.498;2023-04-03T05:48:44;1.50;1.00
8402;DHT22;4238;48.404;9.498;2023-04-03T05:51:15;1.50;1.00
8402;DHT22;4238;48.404;9.498;2023-04-03T05:53:43;1.60;99.90
8402;DHT22;4238;48.404;9.498;2023-04-03T05:56:12;1.60;99.90
8402;DHT22;4238;48.404;9.498;2023-04-03T05:58:39;1.60;1.00
8402;DHT22;4238;48.404;9.498;2023-04-03T06:01:06;1.60;99.90
8402;DHT22;4238;48.404;9.498;2023-04-03T06:03:33;1.70;1.00
8402;DHT22;4238;48.404;9.498;2023-04-03T06:06:03;1.70;99.90
8402;DHT22;4238;48.404;9.498;2023-04-03T06:08:30;1.60;1.00
8402;DHT22;4238;48.404;9.498;2023-04-03T06:10:57;1.70;1.00
8402;DHT22;4238;48.404;9.498;2023-04-03T06:13:25;1.70;1.00
8402;DHT22;4238;48.404;9.498;2023-04-03T06:15:52;1.80;1.00
8402;DHT22;4238;48.404;9.498;2023-04-03T06:18:19;1.90;1.00
8402;DHT22;4238;48.404;9.498;2023-04-03T06:20:46;1.90;99.90
8402;DHT22;4238;48.404;9.498;2023-04-03T06:23:13;2.00;81.70
8402;DHT22;4238;48.404;9.498;2023-04-03T06:25:40;2.10;1.00
8402;DHT22;4238;48.404;9.498;2023-04-03T06:28:08;2.10;99.90
8402;DHT22;4238;48.404;9.498;2023-04-03T06:30:37;2.10;1.00
8402;DHT22;4238;48.404;9.498;2023-04-03T06:33:04;2.00;1.00
8402;DHT22;4238;48.404;9.498;2023-04-03T06:35:30;2.00;99.90
8402;DHT22;4238;48.404;9.498;2023-04-03T06:38:00;2.00;53.20
8402;DHT22;4238;48.404;9.498;2023-04-03T06:40:27;2.00;99.90
8402;DHT22;4238;48.404;9.498;2023-04-03T06:42:54;2.00;99.90
8402;DHT22;4238;48.404;9.498;2023-04-03T06:45:21;2.10;1.00
8402;DHT22;4238;48.404;9.498;2023-04-03T06:47:49;2.10;99.90
8402;DHT22;4238;48.404;9.498;2023-04-03T06:50:16;2.00;99.90
8402;DHT22;4238;48.404;9.498;2023-04-03T06:52:43;2.10;99.90
8402;DHT22;4238;48.404;9.498;2023-04-03T06:55:10;2.20;99.90
8402;DHT22;4238;48.404;9.498;2023-04-03T06:57:37;2.00;99.90
8402;DHT22;4238;48.404;9.498;2023-04-03T07:00:06;2.10;99.90
8402;DHT22;4238;48.404;9.498;2023-04-03T07:02:34;2.20;99.90
8402;DHT22;4238;48.404;9.498;2023-04-03T07:05:03;2.30;99.90
8402;DHT22;4238;48.404;9.498;2023-04-03T07:07:31;2.40;99.90
8402;DHT22;4238;48.404;9.498;2023-04-03T07:09:59;2.40;99.90
8402;DHT22;4238;48.404;9.498;2023-04-03T07:12:26;2.30;1.00
8402;DHT22;4238;48.404;9.498;2023-04-03T07:14:53;2.30;99.90
8402;DHT22;4238;48.404;9.498;2023-04-03T07:17:20;2.40;99.90
8402;DHT22;4238;48.404;9.498;2023-04-03T07:19:47;2.50;99.90
8402;DHT22;4238;48.404;9.498;2023-04-03T07:22:15;2.60;99.90
8402;DHT22;4238;48.404;9.498;2023-04-03T07:24:42;2.60;99.90
8402;DHT22;4238;48.404;9.498;2023-04-03T07:27:09;2.40;1.00
8402;DHT22;4238;48.404;9.498;2023-04-03T07:29:38;2.60;99.90
8402;DHT22;4238;48.404;9.498;2023-04-03T07:32:05;2.50;1.00
8402;DHT22;4238;48.404;9.498;2023-04-03T07:34:33;2.50;1.00
8402;DHT22;4238;48.404;9.498;2023-04-03T07:37:00;2.70;99.90
8402;DHT22;4238;48.404;9.498;2023-04-03T07:39:29;2.50;99.90
8402;DHT22;4238;48.404;9.498;2023-04-03T07:41:56;2.70;99.90
8402;DHT22;4238;48.404;9.498;2023-04-03T07:44:23;2.60;1.00
8402;DHT22;4238;48.404;9.498;2023-04-03T07:46:50;2.50;1.00
8402;DHT22;4238;48.404;9.498;2023-04-03T07:49:17;2.70;1.00
8402;DHT22;4238;48.404;9.498;2023-04-03T07:51:44;2.80;99.90
8402;DHT22;4238;48.404;9.498;2023-04-03T07:54:12;2.70;1.00
8402;DHT22;4238;48.404;9.498;2023-04-03T07:56:40;2.80;99.90
8402;DHT22;4238;48.404;9.498;2023-04-03T07:59:08;2.70;99.90
8402;DHT22;4238;48.404;9.498;2023-04-03T08:01:36;2.60;1.00
8402;DHT22;4238;48.404;9.498;2023-04-03T08:04:03;2.50;1.00
8402;DHT22;4238;48.404;9.498;2023-04-03T08:06:31;2.70;1.00
8402;DHT22;4238;48.404;9.498;2023-04-03T08:09:00;2.90;99.90
8402;DHT22;4238;48.404;9.498;2023-04-03T08:11:27;2.70;59.00
8402;DHT22;4238;48.404;9.498;2023-04-03T08:13:55;2.80;1.00
8402;DHT22;4238;48.404;9.498;2023-04-03T08:16:23;2.90;99.90
8402;DHT22;4238;48.404;9.498;2023-04-03T08:18:52;2.90;99.90
8402;DHT22;4238;48.404;9.498;2023-04-03T08:21:19;3.00;99.90
8402;DHT22;4238;48.404;9.498;2023-04-03T08:23:48;3.00;99.90
8402;DHT22;4238;48.404;9.498;2023-04-03T08:26:17;2.90;1.00
8402;DHT22;4238;48.404;9.498;2023-04-03T08:28:44;3.00;99.90
8402;DHT22;4238;48.404;9.498;2023-04-03T08:31:14;3.20;99.90
8402;DHT22;4238;48.404;9.498;2023-04-03T08:33:41;3.20;99.90
8402;DHT22;4238;48.404;9.498;2023-04-03T08:36:17;3.20;99.90
8402;DHT22;4238;48.404;9.498;2023-04-03T08:38:44;3.40;99.90
8402;DHT22;4238;48.404;9.498;2023-04-03T08:41:15;3.60;1.00
8402;DHT22;4238;48.404;9.498;2023-04-03T08:43:58;3.50;1.00
8402;DHT22;4238;48.404;9.498;2023-04-03T08:46:40;3.50;99.90
8402;DHT22;4238;48.404;9.498;2023-04-03T08:49:14;3.40;1.00
8402;DHT22;4238;48.404;9.498;2023-04-03T08:51:46;3.30;66.50
8402;DHT22;4238;48.404;9.498;2023-04-03T08:54:21;3.20;99.90
8402;DHT22;4238;48.404;9.498;2023-04-03T08:56:50;3.50;1.00
8402;DHT22;4238;48.404;9.498;2023-04-03T08:59:22;3.50;99.90
8402;DHT22;4238;48.404;9.498;2023-04-03T09:01:53;3.60;99.90
8402;DHT22;4238;48.404;9.498;2023-04-03T09:04:20;3.70;99.90
8402;DHT22;4238;48.404;9.498;2023-04-03T09:06:51;3.70;99.90
8402;DHT22;4238;48.404;9.498;2023-04-03T09:09:29;3.70;1.00
8402;DHT22;4238;48.404;9.498;2023-04-03T09:12:03;3.80;99.90
8402;DHT22;4238;48.404;9.498;2023-04-03T09:14:39;3.90;1.00
8402;DHT22;4238;48.404;9.498;2023-04-03T09:17:15;4.00;1.00
8402;DHT22;4238;48.404;9.498;2023-04-03T09:19:51;4.20;1.00
8402;DHT22;4238;48.404;9.498;2023-04-03T09:22:21;4.40;57.50
8402;DHT22;4238;48.404;9.498;2023-04-03T09:24:55;4.40;1.00
8402;DHT22;4238;48.404;9.498;2023-04-03T09:27:23;4.60;1.00
8402;DHT22;4238;48.404;9.498;2023-04-03T09:29:54;4.70;99.90
8402;DHT22;4238;48.404;9.498;2023-04-03T09:32:27;4.50;1.00
8402;DHT22;4238;48.404;9.498;2023-04-03T09:34:55;4.50;1.00
8402;DHT22;4238;48.404;9.498;2023-04-03T09:37:39;4.40;1.00
8402;DHT22;4238;48.404;9.498;2023-04-03T09:40:34;4.50;1.00
8402;DHT22;4238;48.404;9.498;2023-04-03T09:43:27;4.70;99.90
8402;DHT22;4238;48.404;9.498;2023-04-03T09:45:56;4.60;99.90
8402;DHT22;4238;48.404;9.498;2023-04-03T09:48:50;4.70;5.70
8402;DHT22;4238;48.404;9.498;2023-04-03T09:51:17;4.50;10.80
8402;DHT22;4238;48.404;9.498;2023-04-03T09:53:45;4.50;99.90
8402;DHT22;4238;48.404;9.498;2023-04-03T09:56:24;4.50;99.90
8402;DHT22;4238;48.404;9.498;2023-04-03T09:59:05;4.30;1.00
8402;DHT22;4238;48.404;9.498;2023-04-03T10:01:34;4.00;1.00
8402;DHT22;4238;48.404;9.498;2023-04-03T10:04:08;3.80;99.90
8402;DHT22;4238;48.404;9.498;2023-04-03T10:06:37;3.90;1.00
8402;DHT22;4238;48.404;9.498;2023-04-03T10:09:14;4.00;99.90
8402;DHT22;4238;48.404;9.498;2023-04-03T10:11:57;4.20;99.90
8402;DHT22;4238;48.404;9.498;2023-04-03T10:14:24;4.20;44.70
8402;DHT22;4238;48.404;9.498;2023-04-03T10:16:59;4.20;99.90
8402;DHT22;4238;48.404;9.498;2023-04-03T10:19:39;4.20;99.90
8402;DHT22;4238;48.404;9.498;2023-04-03T10:22:16;4.30;1.00
8402;DHT22;4238;48.404;9.498;2023-04-03T10:24:51;4.50;1.00
8402;DHT22;4238;48.404;9.498;2023-04-03T10:27:26;4.40;99.90
8402;DHT22;4238;48.404;9.498;2023-04-03T10:30:03;4.10;99.90
8402;DHT22;4238;48.404;9.498;2023-04-03T10:32:45;4.20;1.00
8402;DHT22;4238;48.404;9.498;2023-04-03T10:35:30;3.80;99.90
8402;DHT22;4238;48.404;9.498;2023-04-03T10:38:09;3.80;99.90
8402;DHT22;4238;48.404;9.498;2023-04-03T10:40:44;3.70;1.00
8402;DHT22;4238;48.404;9.498;2023-04-03T10:43:21;3.70;1.00
8402;DHT22;4238;48.404;9.498;2023-04-03T10:45:59;3.80;1.00
8402;DHT22;4238;48.404;9.498;2023-04-03T10:48:49;3.90;99.90
8402;DHT22;4238;48.404;9.498;2023-04-03T10:51:25;4.00;99.90
8402;DHT22;4238;48.404;9.498;2023-04-03T10:53:57;4.20;1.00
8402;DHT22;4238;48.404;9.498;2023-04-03T10:56:32;4.20;1.00
8402;DHT22;4238;48.404;9.498;2023-04-03T10:59:13;4.30;99.90
8402;DHT22;4238;48.404;9.498;2023-04-03T11:01:45;4.20;99.90
8402;DHT22;4238;48.404;9.498;2023-04-03T11:04:13;4.30;16.80
8402;DHT22;4238;48.404;9.498;2023-04-03T11:06:46;4.20;99.90
8402;DHT22;4238;48.404;9.498;2023-04-03T11:09:19;4.00;1.00
8402;DHT22;4238;48.404;9.498;2023-04-03T11:11:51;4.00;35.10
8402;DHT22;4238;48.404;9.498;2023-04-03T11:14:26;4.00;99.90
8402;DHT22;4238;48.404;9.498;2023-04-03T11:17:04;3.80;1.00
8402;DHT22;4238;48.404;9.498;2023-04-03T11:19:35;3.80;99.90
8402;DHT22;4238;48.404;9.498;2023-04-03T11:22:10;3.90;99.90
8402;DHT22;4238;48.404;9.498;2023-04-03T11:24:42;3.80;99.90
8402;DHT22;4238;48.404;9.498;2023-04-03T11:27:15;4.00;1.00
8402;DHT22;4238;48.404;9.498;2023-04-03T11:29:46;4.20;99.90
8402;DHT22;4238;48.404;9.498;2023-04-03T11:32:31;4.00;99.90
8402;DHT22;4238;48.404;9.498;2023-04-03T11:35:02;3.90;1.00
8402;DHT22;4238;48.404;9.498;2023-04-03T11:37:35;3.80;1.00
8402;DHT22;4238;48.404;9.498;2023-04-03T11:40:06;4.00;1.00
8402;DHT22;4238;48.404;9.498;2023-04-03T11:42:37;4.20;1.00
8402;DHT22;4238;48.404;9.498;2023-04-03T11:45:31;4.30;1.00
8402;DHT22;4238;48.404;9.498;2023-04-03T11:48:02;4.10;1.00
8402;DHT22;4238;48.404;9.498;2023-04-03T11:50:43;4.10;99.90
8402;DHT22;4238;48.404;9.498;2023-04-03T11:53:32;4.00;99.90
8402;DHT22;4238;48.404;9.498;2023-04-03T11:56:31;3.90;1.00
8402;DHT22;4238;48.404;9.498;2023-04-03T11:59:23;4.00;1.00
8402;DHT22;4238;48.404;9.498;2023-04-03T12:01:52;4.20;99.90
8402;DHT22;4238;48.404;9.498;2023-04-03T12:04:20;4.50;99.90
8402;DHT22;4238;48.404;9.498;2023-04-03T12:06:54;4.40;1.00
8402;DHT22;4238;48.404;9.498;2023-04-03T12:12:35;4.50;1.00
8402;DHT22;4238;48.404;9.498;2023-04-03T12:17:59;4.20;99.90
8402;DHT22;4238;48.404;9.498;2023-04-03T12:20:53;4.00;99.90
8402;DHT22;4238;48.404;9.498;2023-04-03T12:23:28;4.00;1.00
8402;DHT22;4238;48.404;9.498;2023-04-03T12:26:04;3.90;1.00
8402;DHT22;4238;48.404;9.498;2023-04-03T12:28:48;4.00;99.90
8402;DHT22;4238;48.404;9.498;2023-04-03T12:31:19;4.10;99.90
8402;DHT22;4238;48.404;9.498;2023-04-03T12:34:04;4.30;1.00
8402;DHT22;4238;48.404;9.498;2023-04-03T12:36:40;4.70;1.00
8402;DHT22;4238;48.404;9.498;2023-04-03T12:39:20;4.80;99.90
8402;DHT22;4238;48.404;9.498;2023-04-03T12:42:00;4.70;5.40
8402;DHT22;4238;48.404;9.498;2023-04-03T12:44:47;4.70;1.00
8402;DHT22;4238;48.404;9.498;2023-04-03T12:47:25;4.50;37.10
8402;DHT22;4238;48.404;9.498;2023-04-03T12:49:53;3.90;99.90
8402;DHT22;4238;48.404;9.498;2023-04-03T12:52:30;4.00;1.00
8402;DHT22;4238;48.404;9.498;2023-04-03T12:55:00;3.80;56.60
8402;DHT22;4238;48.404;9.498;2023-04-03T12:57:30;3.90;99.90
8402;DHT22;4238;48.404;9.498;2023-04-03T12:59:59;3.90;99.90
8402;DHT22;4238;48.404;9.498;2023-04-03T13:02:27;4.00;99.90
8402;DHT22;4238;48.404;9.498;2023-04-03T13:04:57;4.10;99.90
8402;DHT22;4238;48.404;9.498;2023-04-03T13:07:28;4.00;1.00
8402;DHT22;4238;48.404;9.498;2023-04-03T13:10:04;4.00;9.60
8402;DHT22;4238;48.404;9.498;2023-04-03T13:12:31;3.90;99.90
8402;DHT22;4238;48.404;9.498;2023-04-03T13:15:02;4.00;1.00
8402;DHT22;4238;48.404;9.498;2023-04-03T13:17:29;3.90;1.00
8402;DHT22;4238;48.404;9.498;2023-04-03T13:20:10;4.10;1.00
8402;DHT22;4238;48.404;9.498;2023-04-03T13:22:39;4.30;99.90
8402;DHT22;4238;48.404;9.498;2023-04-03T13:25:11;4.50;1.00
8402;DHT22;4238;48.404;9.498;2023-04-03T13:27:39;4.70;1.00
8402;DHT22;4238;48.404;9.498;2023-04-03T13:30:25;4.70;6.20
8402;DHT22;4238;48.404;9.498;2023-04-03T13:32:52;4.60;20.80
8402;DHT22;4238;48.404;9.498;2023-04-03T13:35:28;4.80;99.90
8402;DHT22;4238;48.404;9.498;2023-04-03T13:37:57;4.90;99.90
8402;DHT22;4238;48.404;9.498;2023-04-03T13:40:25;5.00;1.00
8402;DHT22;4238;48.404;9.498;2023-04-03T13:43:00;5.50;1.00
8402;DHT22;4238;48.404;9.498;2023-04-03T13:45:31;5.60;14.60
8402;DHT22;4238;48.404;9.498;2023-04-03T13:48:14;5.70;1.00
8402;DHT22;4238;48.404;9.498;2023-04-03T13:50:55;5.60;99.90
8402;DHT22;4238;48.404;9.498;2023-04-03T13:53:24;5.30;99.90
8402;DHT22;4238;48.404;9.498;2023-04-03T13:56:04;5.10;99.90
8402;DHT22;4238;48.404;9.498;2023-04-03T13:58:34;5.00;1.00
8402;DHT22;4238;48.404;9.498;2023-04-03T14:01:11;4.90;1.00
8402;DHT22;4238;48.404;9.498;2023-04-03T14:03:43;4.80;1.00
8402;DHT22;4238;48.404;9.498;2023-04-03T14:06:11;4.80;1.00
8402;DHT22;4238;48.404;9.498;2023-04-03T14:08:39;4.60;99.90
8402;DHT22;4238;48.404;9.498;2023-04-03T14:11:10;4.50;1.00
8402;DHT22;4238;48.404;9.498;2023-04-03T14:13:39;4.60;99.90
8402;DHT22;4238;48.404;9.498;2023-04-03T14:16:07;4.80;99.90
8402;DHT22;4238;48.404;9.498;2023-04-03T14:18:34;4.70;1.00
8402;DHT22;4238;48.404;9.498;2023-04-03T14:21:02;4.70;99.90
8402;DHT22;4238;48.404;9.498;2023-04-03T14:23:29;4.60;99.90
8402;DHT22;4238;48.404;9.498;2023-04-03T14:25:56;4.40;99.90
8402;DHT22;4238;48.404;9.498;2023-04-03T14:28:23;4.20;1.00
8402;DHT22;4238;48.404;9.498;2023-04-03T14:30:51;4.20;76.10
8402;DHT22;4238;48.404;9.498;2023-04-03T14:33:21;4.30;1.00
8402;DHT22;4238;48.404;9.498;2023-04-03T14:35:49;4.30;1.00
8402;DHT22;4238;48.404;9.498;2023-04-03T14:38:23;4.50;99.90
8402;DHT22;4238;48.404;9.498;2023-04-03T14:40:51;4.50;37.50
8402;DHT22;4238;48.404;9.498;2023-04-03T14:43:18;4.20;1.00
8402;DHT22;4238;48.404;9.498;2023-04-03T14:45:46;4.00;1.00
8402;DHT22;4238;48.404;9.498;2023-04-03T14:48:20;4.10;1.00
8402;DHT22;4238;48.404;9.498;2023-04-03T14:50:50;4.00;1.00
8402;DHT22;4238;48.404;9.498;2023-04-03T14:53:18;4.10;99.90
8402;DHT22;4238;48.404;9.498;2023-04-03T14:55:49;4.20;1.60
8402;DHT22;4238;48.404;9.498;2023-04-03T14:58:18;4.20;1.00
8402;DHT22;4238;48.404;9.498;2023-04-03T15:00:45;4.40;1.00
8402;DHT22;4238;48.404;9.498;2023-04-03T15:03:14;4.70;1.00
8402;DHT22;4238;48.404;9.498;2023-04-03T15:05:44;5.20;99.90
8402;DHT22;4238;48.404;9.498;2023-04-03T15:08:19;5.30;1.00
8402;DHT22;4238;48.404;9.498;2023-04-03T15:10:46;5.10;99.90
8402;DHT22;4238;48.404;9.498;2023-04-03T15:13:14;5.20;99.90
8402;DHT22;4238;48.404;9.498;2023-04-03T15:15:41;5.20;1.00
8402;DHT22;4238;48.404;9.498;2023-04-03T15:18:14;5.00;1.00
8402;DHT22;4238;48.404;9.498;2023-04-03T15:20:43;4.50;1.00
8402;DHT22;4238;48.404;9.498;2023-04-03T15:23:12;4.50;1.00
8402;DHT22;4238;48.404;9.498;2023-04-03T15:25:41;4.50;1.00
8402;DHT22;4238;48.404;9.498;2023-04-03T15:28:09;4.30;1.00
8402;DHT22;4238;48.404;9.498;2023-04-03T15:30:39;4.20;1.00
8402;DHT22;4238;48.404;9.498;2023-04-03T15:33:06;4.30;1.00
8402;DHT22;4238;48.404;9.498;2023-04-03T15:35:33;4.20;1.00
8402;DHT22;4238;48.404;9.498;2023-04-03T15:38:02;4.30;1.00
8402;DHT22;4238;48.404;9.498;2023-04-03T15:40:29;4.30;1.00
8402;DHT22;4238;48.404;9.498;2023-04-03T15:42:55;4.30;1.00
8402;DHT22;4238;48.404;9.498;2023-04-03T15:45:22;4.20;1.00
8402;DHT22;4238;48.404;9.498;2023-04-03T15:47:50;4.10;1.00
8402;DHT22;4238;48.404;9.498;2023-04-03T15:50:17;4.20;1.00
8402;DHT22;4238;48.404;9.498;2023-04-03T15:52:44;4.20;1.00
8402;DHT22;4238;48.404;9.498;2023-04-03T15:55:13;4.30;1.00
8402;DHT22;4238;48.404;9.498;2023-04-03T15:57:39;4.60;2.10
8402;DHT22;4238;48.404;9.498;2023-04-03T16:00:08;4.70;1.00
8402;DHT22;4238;48.404;9.498;2023-04-03T16:02:35;4.80;1.00
8402;DHT22;4238;48.404;9.498;2023-04-03T16:05:02;4.80;1.00
8402;DHT22;4238;48.404;9.498;2023-04-03T16:07:29;4.60;1.00
8402;DHT22;4238;48.404;9.498;2023-04-03T16:09:56;4.50;1.00
8402;DHT22;4238;48.404;9.498;2023-04-03T16:12:25;4.20;1.00
8402;DHT22;4238;48.404;9.498;2023-04-03T16:14:52;4.20;97.70
8402;DHT22;4238;48.404;9.498;2023-04-03T16:17:18;4.00;90.40
8402;DHT22;4238;48.404;9.498;2023-04-03T16:19:46;3.90;99.90
8402;DHT22;4238;48.404;9.498;2023-04-03T16:22:13;4.10;99.90
8402;DHT22;4238;48.404;9.498;2023-04-03T16:24:40;4.50;99.90
8402;DHT22;4238;48.404;9.498;2023-04-03T16:27:07;4.80;99.90
8402;DHT22;4238;48.404;9.498;2023-04-03T16:29:35;4.80;1.00
8402;DHT22;4238;48.404;9.498;2023-04-03T16:32:02;4.60;1.00
8402;DHT22;4238;48.404;9.498;2023-04-03T16:34:29;4.30;1.00
8402;DHT22;4238;48.404;9.498;2023-04-03T16:36:57;4.20;1.00
8402;DHT22;4238;48.404;9.498;2023-04-03T16:39:25;4.00;1.00
8402;DHT22;4238;48.404;9.498;2023-04-03T16:41:51;4.00;1.00
8402;DHT22;4238;48.404;9.498;2023-04-03T16:44:18;4.00;1.00
8402;DHT22;4238;48.404;9.498;2023-04-03T16:46:47;3.80;1.00
8402;DHT22;4238;48.404;9.498;2023-04-03T16:49:14;3.90;1.00
8402;DHT22;4238;48.404;9.498;2023-04-03T16:51:41;3.80;1.00
8402;DHT22;4238;48.404;9.498;2023-04-03T16:54:07;3.70;1.00
8402;DHT22;4238;48.404;9.498;2023-04-03T16:56:36;3.80;1.00
8402;DHT22;4238;48.404;9.498;2023-04-03T16:59:02;3.80;1.00
8402;DHT22;4238;48.404;9.498;2023-04-03T17:01:29;3.90;1.00
8402;DHT22;4238;48.404;9.498;2023-04-03T17:03:58;4.00;1.00
8402;DHT22;4238;48.404;9.498;2023-04-03T17:06:25;4.10;1.00
8402;DHT22;4238;48.404;9.498;2023-04-03T17:08:52;4.10;99.90
8402;DHT22;4238;48.404;9.498;2023-04-03T17:11:19;4.00;1.00
8402;DHT22;4238;48.404;9.498;2023-04-03T17:13:46;4.10;1.00
8402;DHT22;4238;48.404;9.498;2023-04-03T17:16:15;4.00;1.00
8402;DHT22;4238;48.404;9.498;2023-04-03T17:18:42;3.90;1.00
8402;DHT22;4238;48.404;9.498;2023-04-03T17:21:12;3.70;99.90
8402;DHT22;4238;48.404;9.498;2023-04-03T17:23:41;3.50;99.90
8402;DHT22;4238;48.404;9.498;2023-04-03T17:26:09;3.50;99.90
8402;DHT22;4238;48.404;9.498;2023-04-03T17:28:35;3.40;99.90
8402;DHT22;4238;48.404;9.498;2023-04-03T17:31:04;3.40;1.00
8402;DHT22;4238;48.404;9.498;2023-04-03T17:33:32;3.40;1.00
8402;DHT22;4238;48.404;9.498;2023-04-03T17:36:00;3.40;1.00
8402;DHT22;4238;48.404;9.498;2023-04-03T17:38:30;3.40;1.00
8402;DHT22;4238;48.404;9.498;2023-04-03T17:40:59;3.40;1.00
8402;DHT22;4238;48.404;9.498;2023-04-03T17:43:27;3.30;1.00
8402;DHT22;4238;48.404;9.498;2023-04-03T17:45:59;3.30;1.00
8402;DHT22;4238;48.404;9.498;2023-04-03T17:48:28;3.30;1.00
8402;DHT22;4238;48.404;9.498;2023-04-03T17:50:55;3.40;1.00
8402;DHT22;4238;48.404;9.498;2023-04-03T17:53:22;3.30;1.00
8402;DHT22;4238;48.404;9.498;2023-04-03T17:55:51;3.20;1.00
8402;DHT22;4238;48.404;9.498;2023-04-03T17:58:17;3.20;1.00
8402;DHT22;4238;48.404;9.498;2023-04-03T18:00:44;3.00;1.00
8402;DHT22;4238;48.404;9.498;2023-04-03T18:03:11;3.00;1.00
8402;DHT22;4238;48.404;9.498;2023-04-03T18:05:38;3.00;1.00
8402;DHT22;4238;48.404;9.498;2023-04-03T18:08:06;2.80;1.00
8402;DHT22;4238;48.404;9.498;2023-04-03T18:10:34;2.80;1.00
8402;DHT22;4238;48.404;9.498;2023-04-03T18:13:03;2.90;1.00
8402;DHT22;4238;48.404;9.498;2023-04-03T18:15:30;2.90;1.00
8402;DHT22;4238;48.404;9.498;2023-04-03T18:17:57;2.80;1.00
8402;DHT22;4238;48.404;9.498;2023-04-03T18:20:24;2.80;1.00
8402;DHT22;4238;48.404;9.498;2023-04-03T18:22:51;2.90;1.00
8402;DHT22;4238;48.404;9.498;2023-04-03T18:25:18;2.90;1.00
8402;DHT22;4238;48.404;9.498;2023-04-03T18:27:45;3.00;1.00
8402;DHT22;4238;48.404;9.498;2023-04-03T18:30:15;2.90;9.30
8402;DHT22;4238;48.404;9.498;2023-04-03T18:32:43;2.90;1.00
8402;DHT22;4238;48.404;9.498;2023-04-03T18:35:10;2.80;6.50
8402;DHT22;4238;48.404;9.498;2023-04-03T18:37:37;2.90;95.20
8402;DHT22;4238;48.404;9.498;2023-04-03T18:40:05;2.80;90.90
8402;DHT22;4238;48.404;9.498;2023-04-03T18:42:32;2.70;99.90
8402;DHT22;4238;48.404;9.498;2023-04-03T18:45:01;2.70;99.90
8402;DHT22;4238;48.404;9.498;2023-04-03T18:47:32;2.60;99.90
8402;DHT22;4238;48.404;9.498;2023-04-03T18:50:02;2.60;99.90
8402;DHT22;4238;48.404;9.498;2023-04-03T18:52:29;2.60;99.90
8402;DHT22;4238;48.404;9.498;2023-04-03T18:54:56;2.60;99.90
8402;DHT22;4238;48.404;9.498;2023-04-03T18:57:23;2.60;99.90
8402;DHT22;4238;48.404;9.498;2023-04-03T18:59:51;2.60;99.90
8402;DHT22;4238;48.404;9.498;2023-04-03T19:02:18;2.60;99.90
8402;DHT22;4238;48.404;9.498;2023-04-03T19:04:48;2.60;99.90
8402;DHT22;4238;48.404;9.498;2023-04-03T19:07:16;2.60;99.90
8402;DHT22;4238;48.404;9.498;2023-04-03T19:09:43;2.60;99.90
8402;DHT22;4238;48.404;9.498;2023-04-03T19:12:10;2.60;99.90
8402;DHT22;4238;48.404;9.498;2023-04-03T19:14:37;2.70;99.90
8402;DHT22;4238;48.404;9.498;2023-04-03T19:17:04;2.60;99.90
8402;DHT22;4238;48.404;9.498;2023-04-03T19:19:32;2.70;99.90
8402;DHT22;4238;48.404;9.498;2023-04-03T19:22:01;2.60;99.90
8402;DHT22;4238;48.404;9.498;2023-04-03T19:24:27;2.60;99.90
8402;DHT22;4238;48.404;9.498;2023-04-03T19:26:54;2.60;99.90
8402;DHT22;4238;48.404;9.498;2023-04-03T19:29:21;2.60;99.90
8402;DHT22;4238;48.404;9.498;2023-04-03T19:31:48;2.60;99.90
8402;DHT22;4238;48.404;9.498;2023-04-03T19:34:15;2.50;99.90
8402;DHT22;4238;48.404;9.498;2023-04-03T19:36:42;2.60;99.90
8402;DHT22;4238;48.404;9.498;2023-04-03T19:39:11;2.60;99.90
8402;DHT22;4238;48.404;9.498;2023-04-03T19:41:39;2.40;99.90
8402;DHT22;4238;48.404;9.498;2023-04-03T19:44:07;2.50;1.00
8402;DHT22;4238;48.404;9.498;2023-04-03T19:46:35;2.40;1.00
8402;DHT22;4238;48.404;9.498;2023-04-03T19:49:02;2.30;1.00
8402;DHT22;4238;48.404;9.498;2023-04-03T19:51:29;2.40;1.00
8402;DHT22;4238;48.404;9.498;2023-04-03T19:53:56;2.40;1.00
8402;DHT22;4238;48.404;9.498;2023-04-03T19:56:24;2.40;1.00
8402;DHT22;4238;48.404;9.498;2023-04-03T19:58:51;2.40;1.00
8402;DHT22;4238;48.404;9.498;2023-04-03T20:01:19;2.40;1.00
8402;DHT22;4238;48.404;9.498;2023-04-03T20:03:47;2.40;1.00
8402;DHT22;4238;48.404;9.498;2023-04-03T20:06:14;2.30;1.00
8402;DHT22;4238;48.404;9.498;2023-04-03T20:08:41;2.40;80.10
8402;DHT22;4238;48.404;9.498;2023-04-03T20:11:09;2.40;40.40
8402;DHT22;4238;48.404;9.498;2023-04-03T20:13:37;2.30;99.90
8402;DHT22;4238;48.404;9.498;2023-04-03T20:16:05;2.30;99.90
8402;DHT22;4238;48.404;9.498;2023-04-03T20:18:33;2.30;99.90
8402;DHT22;4238;48.404;9.498;2023-04-03T20:21:03;2.30;99.90
8402;DHT22;4238;48.404;9.498;2023-04-03T20:23:30;2.20;99.90
8402;DHT22;4238;48.404;9.498;2023-04-03T20:25:58;2.20;99.90
8402;DHT22;4238;48.404;9.498;2023-04-03T20:28:26;2.20;1.00
8402;DHT22;4238;48.404;9.498;2023-04-03T20:30:54;2.10;1.00
8402;DHT22;4238;48.404;9.498;2023-04-03T20:33:22;2.20;1.00
8402;DHT22;4238;48.404;9.498;2023-04-03T20:35:51;2.10;1.00
8402;DHT22;4238;48.404;9.498;2023-04-03T20:38:19;2.20;1.00
8402;DHT22;4238;48.404;9.498;2023-04-03T20:40:46;2.20;1.00
8402;DHT22;4238;48.404;9.498;2023-04-03T20:43:14;2.20;1.00
8402;DHT22;4238;48.404;9.498;2023-04-03T20:45:41;2.20;1.00
8402;DHT22;4238;48.404;9.498;2023-04-03T20:48:10;2.20;1.00
8402;DHT22;4238;48.404;9.498;2023-04-03T20:50:37;2.20;1.00
8402;DHT22;4238;48.404;9.498;2023-04-03T20:53:05;2.10;1.00
8402;DHT22;4238;48.404;9.498;2023-04-03T20:55:32;2.10;1.00
8402;DHT22;4238;48.404;9.498;2023-04-03T20:57:59;2.00;1.00
8402;DHT22;4238;48.404;9.498;2023-04-03T21:00:27;2.00;99.90
8402;DHT22;4238;48.404;9.498;2023-04-03T21:02:55;2.00;99.90
8402;DHT22;4238;48.404;9.498;2023-04-03T21:05:25;2.00;99.90
8402;DHT22;4238;48.404;9.498;2023-04-03T21:19:35;1.90;1.00
8402;DHT22;4238;48.404;9.498;2023-04-03T21:22:08;1.90;1.00
8402;DHT22;4238;48.404;9.498;2023-04-03T21:24:35;1.90;1.00
8402;DHT22;4238;48.404;9.498;2023-04-03T21:27:03;2.00;1.00
8402;DHT22;4238;48.404;9.498;2023-04-03T21:29:30;2.00;1.00
8402;DHT22;4238;48.404;9.498;2023-04-03T21:31:59;1.90;99.90
8402;DHT22;4238;48.404;9.498;2023-04-03T21:34:27;1.90;1.00
8402;DHT22;4238;48.404;9.498;2023-04-03T21:36:56;1.80;1.00
8402;DHT22;4238;48.404;9.498;2023-04-03T21:39:23;1.80;99.90
8402;DHT22;4238;48.404;9.498;2023-04-03T21:41:50;1.80;1.00
8402;DHT22;4238;48.404;9.498;2023-04-03T21:44:17;1.80;1.00
8402;DHT22;4238;48.404;9.498;2023-04-03T21:46:45;1.80;1.00
8402;DHT22;4238;48.404;9.498;2023-04-03T21:49:13;1.70;1.00
8402;DHT22;4238;48.404;9.498;2023-04-03T21:51:40;1.70;1.00
8402;DHT22;4238;48.404;9.498;2023-04-03T21:54:08;1.50;1.00
8402;DHT22;4238;48.404;9.498;2023-04-03T21:56:36;1.40;1.00
